Time;durP1;ratioP1;P1;durP2;ratioP2;P2;SDS_P1;SDS_P2;PMS_P1;PMS_P2;Temp;Humidity;BMP_temperature;BMP_pressure;BME280_temperature;BME280_humidity;BME280_pressure;Samples;Min_cycle;Max_cycle;Signal;HPM_P1;HPM_P2
2022/03/28 00:00:52;;;;;;;;;;;3.30;87.70;;;;;;5040228;28;19913;-74
2022/03/28 00:03:17;;;;;;;;;;;3.30;87.50;;;;;;5034125;28;19913;-74
2022/03/28 00:05:42;;;;;;;;;;;3.10;87.90;;;;;;5034428;28;19909;-74
2022/03/28 00:08:08;;;;;;;;;;;3.10;88.20;;;;;;5034422;28;19931;-74
2022/03/28 00:10:34;;;;;;;;;;;3.10;87.90;;;;;;5034337;28;20039;-74
2022/03/28 00:12:59;;;;;;;;;;;3.10;88.00;;;;;;5053456;28;19909;-74
2022/03/28 00:15:25;;;;;;;;;;;3.00;88.20;;;;;;5053134;28;20404;-74
2022/03/28 00:17:51;;;;;;;;;;;2.90;88.90;;;;;;5053271;28;19939;-74
2022/03/28 00:20:16;;;;;;;;;;;2.80;90.10;;;;;;5053253;28;19913;-73
2022/03/28 00:22:42;;;;;;;;;;;2.80;89.80;;;;;;5052960;28;19909;-73
2022/03/28 00:25:08;;;;;;;;;;;2.90;90.00;;;;;;5035248;28;19916;-73
2022/03/28 00:27:34;;;;;;;;;;;2.90;89.20;;;;;;5052172;28;20043;-73
2022/03/28 00:30:00;;;;;;;;;;;2.90;88.40;;;;;;5035915;28;19956;-73
2022/03/28 00:32:25;;;;;;;;;;;2.80;87.60;;;;;;5033839;28;19910;-73
2022/03/28 00:34:51;;;;;;;;;;;2.80;87.50;;;;;;5032321;28;19913;-74
2022/03/28 00:37:16;;;;;;;;;;;2.70;87.90;;;;;;5045051;28;20374;-74
2022/03/28 00:39:42;;;;;;;;;;;2.60;88.00;;;;;;5033756;28;19913;-73
2022/03/28 00:42:07;;;;;;;;;;;2.50;88.50;;;;;;5033604;28;19909;-73
2022/03/28 00:44:33;;;;;;;;;;;2.40;90.00;;;;;;5033438;28;19963;-73
2022/03/28 00:46:59;;;;;;;;;;;2.30;90.00;;;;;;5033768;28;19909;-74
2022/03/28 00:49:24;;;;;;;;;;;2.30;90.20;;;;;;5033530;28;19999;-74
2022/03/28 00:51:50;;;;;;;;;;;2.40;90.10;;;;;;5033444;28;19917;-73
2022/03/28 00:54:16;;;;;;;;;;;2.50;89.30;;;;;;5033247;28;19916;-74
2022/03/28 00:56:42;;;;;;;;;;;2.40;89.40;;;;;;5033631;28;19909;-73
2022/03/28 00:59:08;;;;;;;;;;;2.50;89.30;;;;;;5033287;28;19924;-74
2022/03/28 01:01:33;;;;;;;;;;;2.50;89.10;;;;;;5033327;28;20293;-73
2022/03/28 01:03:59;;;;;;;;;;;2.30;90.10;;;;;;5033087;28;19916;-73
2022/03/28 01:06:25;;;;;;;;;;;2.50;89.90;;;;;;5046093;28;20030;-73
2022/03/28 01:08:52;;;;;;;;;;;2.50;89.40;;;;;;5040035;28;20444;-73
2022/03/28 01:11:18;;;;;;;;;;;2.20;90.30;;;;;;5033050;28;19916;-73
2022/03/28 01:13:44;;;;;;;;;;;2.10;90.80;;;;;;5032742;28;20319;-75
2022/03/28 01:16:10;;;;;;;;;;;2.10;91.60;;;;;;5033069;28;19917;-74
2022/03/28 01:18:36;;;;;;;;;;;2.30;91.50;;;;;;5033313;28;19959;-73
2022/03/28 01:21:02;;;;;;;;;;;2.30;91.50;;;;;;5032919;28;19996;-73
2022/03/28 01:23:28;;;;;;;;;;;2.30;91.60;;;;;;5032818;28;19909;-73
2022/03/28 01:25:54;;;;;;;;;;;2.40;91.60;;;;;;5032807;28;19916;-73
2022/03/28 01:28:20;;;;;;;;;;;2.40;91.10;;;;;;5032939;28;19968;-73
2022/03/28 01:30:46;;;;;;;;;;;2.30;91.20;;;;;;5032957;28;20366;-74
2022/03/28 01:33:12;;;;;;;;;;;2.20;91.50;;;;;;5032511;28;19997;-73
2022/03/28 01:35:41;;;;;;;;;;;2.10;91.50;;;;;;5034173;28;19948;-73
2022/03/28 01:38:13;;;;;;;;;;;2.00;92.00;;;;;;5038602;28;20290;-73
2022/03/28 01:40:41;;;;;;;;;;;2.00;92.10;;;;;;5036681;28;20016;-73
2022/03/28 01:43:06;;;;;;;;;;;2.10;92.00;;;;;;5032413;28;19916;-73
2022/03/28 01:45:32;;;;;;;;;;;2.20;91.10;;;;;;5032725;28;20471;-73
2022/03/28 01:47:57;;;;;;;;;;;2.30;90.90;;;;;;5037916;28;19951;-74
2022/03/28 01:50:23;;;;;;;;;;;2.40;90.80;;;;;;5032357;28;19909;-74
2022/03/28 01:52:49;;;;;;;;;;;2.00;91.60;;;;;;5032399;28;19917;-73
2022/03/28 01:55:15;;;;;;;;;;;1.80;92.20;;;;;;5032010;28;20549;-73
2022/03/28 01:57:41;;;;;;;;;;;1.90;92.10;;;;;;5032352;28;20481;-73
2022/03/28 02:00:08;;;;;;;;;;;2.00;91.50;;;;;;5030928;28;19913;-73
2022/03/28 02:02:33;;;;;;;;;;;2.40;91.00;;;;;;5031033;28;20374;-73
2022/03/28 02:04:59;;;;;;;;;;;2.50;90.40;;;;;;5032081;28;19916;-73
2022/03/28 02:07:25;;;;;;;;;;;2.80;88.90;;;;;;5043029;28;19921;-72
2022/03/28 02:09:50;;;;;;;;;;;2.90;88.40;;;;;;5042692;28;19909;-73
2022/03/28 02:12:16;;;;;;;;;;;2.50;89.70;;;;;;5032192;28;19999;-73
2022/03/28 02:14:41;;;;;;;;;;;2.10;90.80;;;;;;5030612;28;19999;-74
2022/03/28 02:17:07;;;;;;;;;;;2.00;91.20;;;;;;5031913;28;19917;-74
2022/03/28 02:19:32;;;;;;;;;;;2.10;91.20;;;;;;5031994;28;19917;-74
2022/03/28 02:21:59;;;;;;;;;;;2.00;91.20;;;;;;5031148;28;21359;-74
2022/03/28 02:24:25;;;;;;;;;;;1.90;91.70;;;;;;5030789;28;19909;-73
2022/03/28 02:26:51;;;;;;;;;;;2.00;91.70;;;;;;5031976;28;20011;-73
2022/03/28 02:29:17;;;;;;;;;;;2.10;91.70;;;;;;5031987;28;20374;-73
2022/03/28 02:31:43;;;;;;;;;;;2.10;91.70;;;;;;5031631;28;19909;-73
2022/03/28 02:34:08;;;;;;;;;;;1.90;92.30;;;;;;5031697;28;20428;-74
2022/03/28 02:36:34;;;;;;;;;;;1.70;92.70;;;;;;5038669;28;19917;-74
2022/03/28 02:38:59;;;;;;;;;;;1.70;93.00;;;;;;5042718;28;20378;-73
2022/03/28 02:41:25;;;;;;;;;;;2.00;92.90;;;;;;5031928;28;19920;-73
2022/03/28 02:43:50;;;;;;;;;;;2.10;92.60;;;;;;5031695;28;19916;-74
2022/03/28 02:46:16;;;;;;;;;;;1.90;92.40;;;;;;5032086;28;19909;-73
2022/03/28 02:48:41;;;;;;;;;;;1.80;93.50;;;;;;5045889;28;20381;-73
2022/03/28 02:51:07;;;;;;;;;;;2.40;91.90;;;;;;5050693;28;19915;-73
2022/03/28 02:53:32;;;;;;;;;;;2.40;91.90;;;;;;5054413;28;20007;-75
2022/03/28 02:55:58;;;;;;;;;;;2.30;92.10;;;;;;5054789;28;19940;-73
2022/03/28 02:58:24;;;;;;;;;;;2.10;92.20;;;;;;5054733;28;20285;-73
2022/03/28 03:00:49;;;;;;;;;;;1.90;93.00;;;;;;5054665;28;19909;-73
2022/03/28 03:03:15;;;;;;;;;;;1.80;93.40;;;;;;5054405;28;19963;-73
2022/03/28 03:05:40;;;;;;;;;;;1.60;93.90;;;;;;5037469;28;19909;-73
2022/03/28 03:08:06;;;;;;;;;;;1.40;94.70;;;;;;5041317;28;19971;-74
2022/03/28 03:10:33;;;;;;;;;;;1.40;95.00;;;;;;5040014;28;19909;-74
2022/03/28 03:12:58;;;;;;;;;;;1.40;95.00;;;;;;5035291;28;19910;-73
2022/03/28 03:15:24;;;;;;;;;;;1.40;95.10;;;;;;5035285;28;19971;-73
2022/03/28 03:17:49;;;;;;;;;;;1.60;94.80;;;;;;5035178;28;20278;-72
2022/03/28 03:20:15;;;;;;;;;;;1.40;95.30;;;;;;5036204;28;19917;-75
2022/03/28 03:22:42;;;;;;;;;;;1.10;96.40;;;;;;5050006;28;19909;-73
2022/03/28 03:25:07;;;;;;;;;;;1.10;97.20;;;;;;5036381;28;19931;-73
2022/03/28 03:27:35;;;;;;;;;;;1.30;97.20;;;;;;5035257;28;19909;-73
2022/03/28 03:30:00;;;;;;;;;;;1.40;96.30;;;;;;5035312;28;19909;-73
2022/03/28 03:32:26;;;;;;;;;;;1.10;96.80;;;;;;5044446;28;19916;-74
2022/03/28 03:34:51;;;;;;;;;;;1.00;97.20;;;;;;5039322;28;19909;-75
2022/03/28 03:37:17;;;;;;;;;;;0.90;98.30;;;;;;5035154;28;19909;-73
2022/03/28 03:39:42;;;;;;;;;;;0.70;99.40;;;;;;5035063;28;19952;-73
2022/03/28 03:42:08;;;;;;;;;;;0.90;99.50;;;;;;5033431;28;19909;-73
2022/03/28 03:44:34;;;;;;;;;;;1.10;99.10;;;;;;5034646;28;19909;-74
2022/03/28 03:46:59;;;;;;;;;;;1.10;99.00;;;;;;5040931;28;19943;-73
2022/03/28 03:49:25;;;;;;;;;;;0.90;99.30;;;;;;5034804;28;19919;-73
2022/03/28 03:51:50;;;;;;;;;;;0.80;99.90;;;;;;5034556;28;20370;-73
2022/03/28 03:54:16;;;;;;;;;;;0.90;99.70;;;;;;5034593;28;19916;-74
2022/03/28 03:56:42;;;;;;;;;;;0.80;99.90;;;;;;5034831;28;19963;-74
2022/03/28 03:59:07;;;;;;;;;;;0.70;99.90;;;;;;5033377;28;19913;-74
2022/03/28 04:01:33;;;;;;;;;;;0.80;99.90;;;;;;5037247;28;20572;-74
2022/03/28 04:03:58;;;;;;;;;;;0.80;99.90;;;;;;5049054;28;19916;-74
2022/03/28 04:06:24;;;;;;;;;;;0.70;99.90;;;;;;5034244;28;19914;-73
2022/03/28 04:08:49;;;;;;;;;;;0.60;99.90;;;;;;5034428;28;19924;-74
2022/03/28 04:11:15;;;;;;;;;;;0.70;99.90;;;;;;5034254;28;19910;-73
2022/03/28 04:13:41;;;;;;;;;;;1.00;99.90;;;;;;5034331;28;19976;-74
2022/03/28 04:16:06;;;;;;;;;;;1.00;99.90;;;;;;5034175;28;19956;-72
2022/03/28 04:18:32;;;;;;;;;;;0.90;99.90;;;;;;5034195;28;19917;-74
2022/03/28 04:20:57;;;;;;;;;;;0.80;99.90;;;;;;5034027;28;19909;-74
2022/03/28 04:23:24;;;;;;;;;;;0.70;99.90;;;;;;5034049;28;19963;-73
2022/03/28 04:25:49;;;;;;;;;;;0.70;99.90;;;;;;5034523;28;20308;-73
2022/03/28 04:28:15;;;;;;;;;;;0.70;99.90;;;;;;5034326;28;19917;-73
2022/03/28 04:30:40;;;;;;;;;;;0.50;99.90;;;;;;5038181;28;19909;-73
2022/03/28 04:33:09;;;;;;;;;;;0.40;99.90;;;;;;5037348;28;20346;-73
2022/03/28 04:35:35;;;;;;;;;;;0.40;99.90;;;;;;5039389;28;19913;-73
2022/03/28 04:38:02;;;;;;;;;;;0.40;99.90;;;;;;5034251;28;19913;-75
2022/03/28 04:40:28;;;;;;;;;;;0.40;99.90;;;;;;5034036;28;19913;-73
2022/03/28 04:42:54;;;;;;;;;;;0.40;99.90;;;;;;5033963;28;19910;-73
2022/03/28 04:45:19;;;;;;;;;;;0.60;99.90;;;;;;5033732;28;19924;-73
2022/03/28 04:47:45;;;;;;;;;;;0.80;99.90;;;;;;5034058;28;19964;-73
2022/03/28 04:50:10;;;;;;;;;;;0.80;99.90;;;;;;5033744;28;19963;-73
2022/03/28 04:52:36;;;;;;;;;;;0.80;99.90;;;;;;5033791;28;19910;-73
2022/03/28 04:55:01;;;;;;;;;;;0.60;99.90;;;;;;5035513;28;19909;-73
2022/03/28 04:57:27;;;;;;;;;;;0.50;99.90;;;;;;5046646;28;19909;-75
2022/03/28 04:59:52;;;;;;;;;;;0.50;99.90;;;;;;5052767;28;19920;-73
2022/03/28 05:02:18;;;;;;;;;;;0.50;99.90;;;;;;5053835;28;19910;-72
2022/03/28 05:04:44;;;;;;;;;;;0.50;99.90;;;;;;5035318;28;19924;-73
2022/03/28 05:07:09;;;;;;;;;;;0.50;99.90;;;;;;5033476;28;19920;-72
2022/03/28 05:09:35;;;;;;;;;;;0.60;99.90;;;;;;5033428;28;19919;-72
2022/03/28 05:12:01;;;;;;;;;;;0.70;99.90;;;;;;5033336;28;19910;-73
2022/03/28 05:14:26;;;;;;;;;;;1.00;99.90;;;;;;5031295;28;20257;-73
2022/03/28 05:16:52;;;;;;;;;;;1.20;99.90;;;;;;5033283;28;19921;-75
2022/03/28 05:19:17;;;;;;;;;;;1.00;99.90;;;;;;5032950;28;19913;-72
2022/03/28 05:21:43;;;;;;;;;;;0.80;99.90;;;;;;5033088;28;19916;-73
2022/03/28 05:24:08;;;;;;;;;;;0.90;99.90;;;;;;5032821;28;19910;-73
2022/03/28 05:26:33;;;;;;;;;;;0.70;99.90;;;;;;5033132;28;19909;-72
2022/03/28 05:29:00;;;;;;;;;;;0.60;99.90;;;;;;5033114;28;19970;-73
2022/03/28 05:31:26;;;;;;;;;;;0.60;99.90;;;;;;5034103;28;19916;-74
2022/03/28 05:33:51;;;;;;;;;;;0.70;99.90;;;;;;5052398;28;19908;-72
2022/03/28 05:36:17;;;;;;;;;;;0.80;99.90;;;;;;5033044;28;19909;-74
2022/03/28 05:38:43;;;;;;;;;;;1.20;99.90;;;;;;5032871;28;20011;-73
2022/03/28 05:41:09;;;;;;;;;;;1.10;99.90;;;;;;5051979;28;20389;-73
2022/03/28 05:43:35;;;;;;;;;;;1.10;99.90;;;;;;5051386;28;19913;-73
2022/03/28 05:46:02;;;;;;;;;;;1.10;99.90;;;;;;5051879;28;19959;-74
2022/03/28 05:48:27;;;;;;;;;;;1.30;99.90;;;;;;5052261;28;19915;-73
2022/03/28 05:50:53;;;;;;;;;;;1.50;99.90;;;;;;5051756;28;20003;-73
2022/03/28 05:53:19;;;;;;;;;;;1.40;99.90;;;;;;5051487;28;19908;-74
2022/03/28 05:55:44;;;;;;;;;;;1.40;99.90;;;;;;5051872;28;19913;-73
2022/03/28 05:58:10;;;;;;;;;;;1.70;99.90;;;;;;5051360;28;19912;-72
2022/03/28 06:00:36;;;;;;;;;;;1.70;99.90;;;;;;5035111;28;19999;-73
2022/03/28 06:03:02;;;;;;;;;;;1.70;99.90;;;;;;5035436;28;19971;-73
2022/03/28 06:05:27;;;;;;;;;;;1.80;99.90;;;;;;5037473;28;19916;-73
2022/03/28 06:07:53;;;;;;;;;;;1.70;99.90;;;;;;5032425;28;19948;-73
2022/03/28 06:10:18;;;;;;;;;;;1.70;99.90;;;;;;5032263;28;19913;-73
2022/03/28 06:12:44;;;;;;;;;;;1.70;99.90;;;;;;5032103;28;20019;-73
2022/03/28 06:15:09;;;;;;;;;;;1.90;99.90;;;;;;5031669;28;19909;-74
2022/03/28 06:17:35;;;;;;;;;;;1.90;99.90;;;;;;5043792;28;19917;-73
2022/03/28 06:20:04;;;;;;;;;;;2.00;99.90;;;;;;5038176;28;19924;-73
2022/03/28 06:22:29;;;;;;;;;;;2.00;99.90;;;;;;5031773;28;19967;-75
2022/03/28 06:24:55;;;;;;;;;;;2.20;99.90;;;;;;5031510;28;19995;-73
2022/03/28 06:27:24;;;;;;;;;;;2.50;99.90;;;;;;5030841;28;20358;-73
2022/03/28 06:29:50;;;;;;;;;;;2.70;99.90;;;;;;5031617;28;20282;-74
2022/03/28 06:32:16;;;;;;;;;;;2.70;99.90;;;;;;5041618;28;19913;-74
2022/03/28 06:34:42;;;;;;;;;;;2.80;99.90;;;;;;5033942;28;20492;-73
2022/03/28 06:37:07;;;;;;;;;;;2.90;99.90;;;;;;5031784;28;19931;-73
2022/03/28 06:39:34;;;;;;;;;;;3.10;99.90;;;;;;5032705;28;20372;-74
2022/03/28 06:42:00;;;;;;;;;;;3.30;99.90;;;;;;5044083;28;19909;-75
2022/03/28 06:44:25;;;;;;;;;;;3.40;99.90;;;;;;5037417;28;19962;-73
2022/03/28 06:46:51;;;;;;;;;;;3.50;99.80;;;;;;5042610;28;19915;-73
2022/03/28 06:49:17;;;;;;;;;;;3.70;98.90;;;;;;5036552;28;19921;-74
2022/03/28 06:51:42;;;;;;;;;;;3.90;98.00;;;;;;5038188;28;20416;-74
2022/03/28 06:54:08;;;;;;;;;;;4.10;97.60;;;;;;5047275;28;19948;-74
2022/03/28 06:56:35;;;;;;;;;;;4.30;96.90;;;;;;5037244;28;19909;-74
2022/03/28 06:59:00;;;;;;;;;;;4.50;96.50;;;;;;5041785;28;19958;-74
2022/03/28 07:01:26;;;;;;;;;;;4.70;95.90;;;;;;5033398;28;19917;-74
2022/03/28 07:03:52;;;;;;;;;;;4.80;95.40;;;;;;5031285;28;20597;-74
2022/03/28 07:06:18;;;;;;;;;;;5.00;95.70;;;;;;5031314;28;19910;-74
2022/03/28 07:08:43;;;;;;;;;;;5.20;95.40;;;;;;5031246;28;19916;-74
2022/03/28 07:11:09;;;;;;;;;;;5.30;94.90;;;;;;5033564;28;20366;-73
2022/03/28 07:13:35;;;;;;;;;;;5.50;95.00;;;;;;5043076;28;20251;-73
2022/03/28 07:16:00;;;;;;;;;;;5.60;94.30;;;;;;5030949;28;19952;-72
2022/03/28 07:18:26;;;;;;;;;;;5.80;93.30;;;;;;5030994;28;20159;-74
2022/03/28 07:20:51;;;;;;;;;;;6.10;92.40;;;;;;5031448;28;19909;-74
2022/03/28 07:23:17;;;;;;;;;;;6.40;91.40;;;;;;5030664;28;19916;-74
2022/03/28 07:25:43;;;;;;;;;;;6.80;90.70;;;;;;5030965;28;20000;-75
2022/03/28 07:28:10;;;;;;;;;;;7.10;88.60;;;;;;5038210;28;20402;-75
2022/03/28 07:30:35;;;;;;;;;;;7.40;88.40;;;;;;5047822;28;19967;-74
2022/03/28 07:33:02;;;;;;;;;;;7.60;89.10;;;;;;5029835;28;19917;-75
2022/03/28 07:35:29;;;;;;;;;;;7.80;88.40;;;;;;5029416;28;19949;-74
2022/03/28 07:37:54;;;;;;;;;;;8.00;88.70;;;;;;5031951;28;20286;-74
2022/03/28 07:40:20;;;;;;;;;;;8.30;87.80;;;;;;5041780;28;19913;-74
2022/03/28 07:42:46;;;;;;;;;;;8.50;87.70;;;;;;5034444;28;19963;-75
2022/03/28 07:45:14;;;;;;;;;;;8.80;86.00;;;;;;5034447;28;19909;-74
2022/03/28 07:47:40;;;;;;;;;;;9.20;85.00;;;;;;5034116;28;20228;-75
2022/03/28 07:50:05;;;;;;;;;;;9.80;83.70;;;;;;5033062;28;20377;-76
2022/03/28 07:52:31;;;;;;;;;;;10.10;79.70;;;;;;5034230;28;19910;-74
2022/03/28 07:54:57;;;;;;;;;;;10.20;82.10;;;;;;5034024;28;19916;-74
2022/03/28 07:57:22;;;;;;;;;;;10.60;81.60;;;;;;5036897;28;20003;-72
2022/03/28 07:59:48;;;;;;;;;;;12.80;75.90;;;;;;5039888;28;19916;-73
2022/03/28 08:02:15;;;;;;;;;;;14.80;67.10;;;;;;5052205;28;19916;-74
2022/03/28 08:04:43;;;;;;;;;;;16.00;65.30;;;;;;5037993;28;19948;-73
2022/03/28 08:07:08;;;;;;;;;;;16.80;59.40;;;;;;5034138;28;19914;-73
2022/03/28 08:09:34;;;;;;;;;;;17.80;55.80;;;;;;5033741;28;20400;-73
2022/03/28 08:12:00;;;;;;;;;;;18.30;51.70;;;;;;5038886;28;19932;-73
2022/03/28 08:14:26;;;;;;;;;;;18.80;51.00;;;;;;5040936;28;19912;-73
2022/03/28 08:16:51;;;;;;;;;;;19.10;51.10;;;;;;5034031;28;20213;-73
2022/03/28 08:19:17;;;;;;;;;;;19.40;49.50;;;;;;5046755;28;19913;-74
2022/03/28 08:21:43;;;;;;;;;;;19.70;49.10;;;;;;5033879;28;19940;-73
2022/03/28 08:24:08;;;;;;;;;;;20.10;47.70;;;;;;5033589;28;19971;-72
2022/03/28 08:26:34;;;;;;;;;;;19.90;46.90;;;;;;5034363;28;19963;-73
2022/03/28 08:28:59;;;;;;;;;;;20.40;46.70;;;;;;5043812;28;19916;-73
2022/03/28 08:31:25;;;;;;;;;;;20.80;45.00;;;;;;5038863;28;19909;-73
2022/03/28 08:33:51;;;;;;;;;;;20.90;46.90;;;;;;5033516;28;19924;-73
2022/03/28 08:36:16;;;;;;;;;;;20.80;47.00;;;;;;5033728;28;19917;-74
2022/03/28 08:38:42;;;;;;;;;;;21.20;45.90;;;;;;5033496;28;19979;-73
2022/03/28 08:41:12;;;;;;;;;;;21.90;43.70;;;;;;5034041;28;19909;-73
2022/03/28 08:43:38;;;;;;;;;;;22.20;43.40;;;;;;5052918;28;19916;-77
2022/03/28 08:46:05;;;;;;;;;;;22.90;42.50;;;;;;5052997;28;19909;-73
2022/03/28 08:48:33;;;;;;;;;;;22.80;43.50;;;;;;5052276;28;20380;-74
2022/03/28 08:50:59;;;;;;;;;;;23.50;43.00;;;;;;5051696;28;19997;-73
2022/03/28 08:53:24;;;;;;;;;;;23.30;42.20;;;;;;5051978;28;19952;-73
2022/03/28 08:55:50;;;;;;;;;;;23.40;42.80;;;;;;5052405;28;19913;-74
2022/03/28 08:58:15;;;;;;;;;;;23.60;42.40;;;;;;5039721;28;19952;-73
2022/03/28 09:00:42;;;;;;;;;;;23.20;42.00;;;;;;5049036;28;19913;-74
2022/03/28 09:03:07;;;;;;;;;;;23.80;42.20;;;;;;5032692;28;20408;-74
2022/03/28 09:05:38;;;;;;;;;;;24.70;40.70;;;;;;5033337;28;19999;-73
2022/03/28 09:08:04;;;;;;;;;;;24.20;40.60;;;;;;5033035;28;20004;-74
2022/03/28 09:10:34;;;;;;;;;;;23.90;40.30;;;;;;5032560;28;20333;-73
2022/03/28 09:13:02;;;;;;;;;;;24.10;38.70;;;;;;5038443;28;19912;-74
2022/03/28 09:15:46;;;;;;;;;;;23.70;40.00;;;;;;5037478;28;19909;-74
2022/03/28 09:18:21;;;;;;;;;;;24.20;40.50;;;;;;5046870;28;20130;-74
2022/03/28 09:20:47;;;;;;;;;;;24.70;40.30;;;;;;5051621;28;19916;-74
2022/03/28 09:23:33;;;;;;;;;;;25.10;39.60;;;;;;5051456;28;19909;-74
2022/03/28 09:25:59;;;;;;;;;;;25.30;38.30;;;;;;5052003;28;19955;-73
2022/03/28 09:28:37;;;;;;;;;;;25.30;41.20;;;;;;5040753;28;19913;-74
2022/03/28 09:31:18;;;;;;;;;;;25.90;37.70;;;;;;5042660;28;19913;-75
2022/03/28 09:33:56;;;;;;;;;;;25.10;39.50;;;;;;5051498;28;19909;-74
2022/03/28 09:36:33;;;;;;;;;;;26.10;38.80;;;;;;5051859;28;19913;-74
2022/03/28 09:38:59;;;;;;;;;;;26.40;37.50;;;;;;5051325;28;19912;-74
2022/03/28 09:41:27;;;;;;;;;;;26.80;38.40;;;;;;5051458;28;20258;-74
2022/03/28 09:43:54;;;;;;;;;;;26.70;38.60;;;;;;5051133;28;19909;-74
2022/03/28 09:46:26;;;;;;;;;;;27.30;36.00;;;;;;5051433;28;20010;-74
2022/03/28 09:48:53;;;;;;;;;;;27.10;35.40;;;;;;5046932;28;19909;-74
2022/03/28 09:51:21;;;;;;;;;;;27.10;35.90;;;;;;5035682;28;19964;-74
2022/03/28 09:53:47;;;;;;;;;;;27.20;34.80;;;;;;5045196;28;20004;-75
2022/03/28 09:56:13;;;;;;;;;;;27.10;35.90;;;;;;5038282;28;19916;-74
2022/03/28 09:58:45;;;;;;;;;;;26.70;35.70;;;;;;5041662;28;19909;-74
2022/03/28 10:01:18;;;;;;;;;;;26.70;36.50;;;;;;5039786;28;19929;-75
2022/03/28 10:03:45;;;;;;;;;;;27.90;36.00;;;;;;5050502;28;20003;-74
2022/03/28 10:06:11;;;;;;;;;;;27.60;35.10;;;;;;5033301;28;20394;-75
2022/03/28 10:08:38;;;;;;;;;;;28.30;34.70;;;;;;5032354;28;19923;-74
2022/03/28 10:11:04;;;;;;;;;;;28.10;34.60;;;;;;5038980;28;20358;-74
2022/03/28 10:13:30;;;;;;;;;;;28.60;34.40;;;;;;5045959;28;20001;-74
2022/03/28 10:15:57;;;;;;;;;;;28.90;33.70;;;;;;5038565;28;20015;-74
2022/03/28 10:18:22;;;;;;;;;;;27.40;31.40;;;;;;5033183;28;20259;-74
2022/03/28 10:20:53;;;;;;;;;;;28.00;30.40;;;;;;5031490;28;20000;-74
2022/03/28 10:23:19;;;;;;;;;;;28.60;32.00;;;;;;5032179;28;19916;-74
2022/03/28 10:25:45;;;;;;;;;;;28.20;33.50;;;;;;5031667;28;19916;-74
2022/03/28 10:28:10;;;;;;;;;;;27.80;32.30;;;;;;5033327;28;19909;-74
2022/03/28 10:30:36;;;;;;;;;;;28.30;30.90;;;;;;5043567;28;19996;-75
2022/03/28 10:33:08;;;;;;;;;;;28.70;30.00;;;;;;5032107;28;19916;-75
2022/03/28 10:35:33;;;;;;;;;;;28.10;31.70;;;;;;5032151;28;19913;-75
2022/03/28 10:38:15;;;;;;;;;;;28.80;30.20;;;;;;5032046;28;19956;-75
2022/03/28 10:41:00;;;;;;;;;;;28.80;29.60;;;;;;5043585;28;20370;-75
2022/03/28 10:43:27;;;;;;;;;;;28.30;28.20;;;;;;5031838;28;19916;-75
2022/03/28 10:45:53;;;;;;;;;;;28.00;30.00;;;;;;5032737;28;19909;-75
2022/03/28 10:48:37;;;;;;;;;;;29.10;29.50;;;;;;5037800;28;19970;-75
2022/03/28 10:51:04;;;;;;;;;;;30.20;28.90;;;;;;5032080;28;19913;-75
2022/03/28 10:53:39;;;;;;;;;;;30.50;27.80;;;;;;5031791;28;19968;-75
2022/03/28 10:56:06;;;;;;;;;;;29.80;28.30;;;;;;5043932;28;19917;-75
2022/03/28 10:58:36;;;;;;;;;;;29.90;29.20;;;;;;5039760;28;19964;-75
2022/03/28 11:01:07;;;;;;;;;;;28.90;29.20;;;;;;5032693;28;20326;-75
2022/03/28 11:03:36;;;;;;;;;;;28.60;27.10;;;;;;5031628;28;20440;-74
2022/03/28 11:06:02;;;;;;;;;;;27.80;29.60;;;;;;5032023;28;20309;-75
2022/03/28 11:08:31;;;;;;;;;;;28.70;29.90;;;;;;5032238;28;19936;-75
2022/03/28 11:11:12;;;;;;;;;;;29.40;29.10;;;;;;5034406;28;19909;-74
2022/03/28 11:13:38;;;;;;;;;;;29.20;29.60;;;;;;5037806;28;19910;-74
2022/03/28 11:16:03;;;;;;;;;;;29.90;27.80;;;;;;5035686;28;20000;-74
2022/03/28 11:18:29;;;;;;;;;;;29.10;30.10;;;;;;5034423;28;20392;-75
2022/03/28 11:20:55;;;;;;;;;;;28.70;30.20;;;;;;5035420;28;19917;-75
2022/03/28 11:23:20;;;;;;;;;;;28.50;29.50;;;;;;5035358;28;19909;-74
2022/03/28 11:25:51;;;;;;;;;;;29.70;29.60;;;;;;5035659;28;19928;-74
2022/03/28 11:28:38;;;;;;;;;;;30.50;28.40;;;;;;5041732;28;20332;-74
2022/03/28 11:31:09;;;;;;;;;;;30.20;28.90;;;;;;5042787;28;19931;-75
2022/03/28 11:33:35;;;;;;;;;;;30.30;29.20;;;;;;5048490;28;19915;-75
2022/03/28 11:36:04;;;;;;;;;;;30.40;27.60;;;;;;5037108;28;19909;-74
2022/03/28 11:38:40;;;;;;;;;;;31.00;28.40;;;;;;5036344;28;20370;-74
2022/03/28 11:41:07;;;;;;;;;;;30.20;28.50;;;;;;5034526;28;19967;-74
2022/03/28 11:43:37;;;;;;;;;;;29.40;29.10;;;;;;5034498;28;19913;-74
2022/03/28 11:46:09;;;;;;;;;;;28.90;28.10;;;;;;5034794;28;20383;-75
2022/03/28 11:48:35;;;;;;;;;;;30.00;29.30;;;;;;5047455;28;19913;-75
2022/03/28 11:51:12;;;;;;;;;;;29.20;28.30;;;;;;5040423;28;20386;-75
2022/03/28 11:53:38;;;;;;;;;;;29.60;28.00;;;;;;5041742;28;19909;-74
2022/03/28 11:56:03;;;;;;;;;;;28.70;29.10;;;;;;5041027;28;19917;-75
2022/03/28 11:58:30;;;;;;;;;;;30.40;27.80;;;;;;5053597;28;20432;-74
2022/03/28 12:01:09;;;;;;;;;;;29.70;27.90;;;;;;5052337;28;19913;-74
2022/03/28 12:03:37;;;;;;;;;;;29.30;29.30;;;;;;5037536;28;19917;-74
2022/03/28 12:06:03;;;;;;;;;;;29.10;28.80;;;;;;5038583;28;19995;-75
2022/03/28 12:08:28;;;;;;;;;;;27.90;30.80;;;;;;5049061;28;19913;-74
2022/03/28 12:10:54;;;;;;;;;;;24.20;33.10;;;;;;5043388;28;19909;-74
2022/03/28 12:13:21;;;;;;;;;;;22.70;35.80;;;;;;5046484;28;20269;-74
2022/03/28 12:15:48;;;;;;;;;;;22.60;37.40;;;;;;5038703;28;19909;-74
2022/03/28 12:18:18;;;;;;;;;;;22.40;36.20;;;;;;5033882;28;20263;-74
2022/03/28 12:20:44;;;;;;;;;;;22.20;36.70;;;;;;5033842;28;19964;-74
2022/03/28 12:23:12;;;;;;;;;;;21.60;38.80;;;;;;5052330;28;19909;-74
2022/03/28 12:25:37;;;;;;;;;;;21.30;37.50;;;;;;5036019;28;20390;-74
2022/03/28 12:28:05;;;;;;;;;;;21.50;40.10;;;;;;5033908;28;19916;-75
2022/03/28 12:30:36;;;;;;;;;;;21.20;39.40;;;;;;5033640;28;20389;-74
2022/03/28 12:33:11;;;;;;;;;;;20.80;36.70;;;;;;5037733;28;19909;-74
2022/03/28 12:35:42;;;;;;;;;;;20.60;36.80;;;;;;5033730;28;20342;-73
2022/03/28 12:38:08;;;;;;;;;;;20.50;39.30;;;;;;5033640;28;19910;-74
2022/03/28 12:40:35;;;;;;;;;;;20.50;38.70;;;;;;5033427;28;19913;-73
2022/03/28 12:43:02;;;;;;;;;;;20.50;37.70;;;;;;5033041;28;20374;-74
2022/03/28 12:45:29;;;;;;;;;;;20.60;36.00;;;;;;5036170;28;19913;-74
2022/03/28 12:47:56;;;;;;;;;;;20.50;37.10;;;;;;5040930;28;20269;-74
2022/03/28 12:50:26;;;;;;;;;;;20.30;39.80;;;;;;5049952;28;19916;-73
2022/03/28 12:53:04;;;;;;;;;;;20.10;42.60;;;;;;5033136;28;19917;-73
2022/03/28 12:55:29;;;;;;;;;;;20.00;42.80;;;;;;5033131;28;19915;-73
2022/03/28 12:57:56;;;;;;;;;;;20.00;45.40;;;;;;5033347;28;19909;-74
2022/03/28 13:00:25;;;;;;;;;;;20.10;44.30;;;;;;5033000;28;19923;-73
2022/03/28 13:02:52;;;;;;;;;;;20.10;44.70;;;;;;5032316;28;19909;-73
2022/03/28 13:05:18;;;;;;;;;;;20.00;44.50;;;;;;5041460;28;19909;-74
2022/03/28 13:07:43;;;;;;;;;;;20.00;43.50;;;;;;5034663;28;19992;-74
2022/03/28 13:10:20;;;;;;;;;;;19.70;42.70;;;;;;5031745;28;19909;-74
2022/03/28 13:12:45;;;;;;;;;;;19.90;42.40;;;;;;5043402;28;19909;-74
2022/03/28 13:15:18;;;;;;;;;;;19.80;43.00;;;;;;5037248;28;19979;-74
2022/03/28 13:17:48;;;;;;;;;;;20.00;46.60;;;;;;5032799;28;19940;-74
2022/03/28 13:20:23;;;;;;;;;;;19.90;45.60;;;;;;5051831;28;19912;-74
2022/03/28 13:22:50;;;;;;;;;;;20.00;45.30;;;;;;5055368;28;19924;-74
2022/03/28 13:25:19;;;;;;;;;;;19.50;46.20;;;;;;5057842;28;19909;-74
2022/03/28 13:28:08;;;;;;;;;;;19.60;47.90;;;;;;5057491;28;19916;-74
2022/03/28 13:30:41;;;;;;;;;;;19.80;45.70;;;;;;5052894;28;19952;-74
2022/03/28 13:33:06;;;;;;;;;;;20.00;47.00;;;;;;5046295;28;20262;-74
2022/03/28 13:35:33;;;;;;;;;;;19.80;46.20;;;;;;5049593;28;20008;-74
2022/03/28 13:37:59;;;;;;;;;;;19.50;45.80;;;;;;5037043;28;19910;-74
2022/03/28 13:40:26;;;;;;;;;;;19.70;45.00;;;;;;5032502;28;19924;-74
2022/03/28 13:42:51;;;;;;;;;;;19.50;44.80;;;;;;5032329;28;19916;-74
2022/03/28 13:45:18;;;;;;;;;;;19.50;45.50;;;;;;5032190;28;19909;-74
2022/03/28 13:47:44;;;;;;;;;;;19.80;45.60;;;;;;5032074;28;19909;-74
2022/03/28 13:50:09;;;;;;;;;;;19.80;44.40;;;;;;5035643;28;20065;-73
2022/03/28 13:52:35;;;;;;;;;;;19.80;43.50;;;;;;5051522;28;19912;-73
2022/03/28 13:55:00;;;;;;;;;;;19.70;46.80;;;;;;5051038;28;19956;-74
2022/03/28 13:57:26;;;;;;;;;;;19.80;45.30;;;;;;5051508;28;20000;-74
2022/03/28 13:59:52;;;;;;;;;;;19.50;45.50;;;;;;5051216;28;20381;-73
2022/03/28 14:02:19;;;;;;;;;;;19.60;45.60;;;;;;5044698;28;19909;-73
2022/03/28 14:04:47;;;;;;;;;;;19.70;44.90;;;;;;5037916;28;20124;-73
2022/03/28 14:07:13;;;;;;;;;;;19.50;43.70;;;;;;5042751;28;19917;-73
2022/03/28 14:09:38;;;;;;;;;;;19.50;45.80;;;;;;5031479;28;19909;-74
2022/03/28 14:12:04;;;;;;;;;;;19.60;46.80;;;;;;5043174;28;19913;-73
2022/03/28 14:14:30;;;;;;;;;;;19.50;42.70;;;;;;5033165;28;19916;-73
2022/03/28 14:16:56;;;;;;;;;;;19.60;43.90;;;;;;5031693;28;19972;-73
2022/03/28 14:19:22;;;;;;;;;;;19.40;44.60;;;;;;5031998;28;19913;-73
2022/03/28 14:21:47;;;;;;;;;;;19.50;45.30;;;;;;5032529;28;20321;-73